Big Hole Natl Battlefield, Montana
Current Conditions -  °F | °C
As of 6:15 PM on Sunday 21 Dec 2014 (Local Time) from KSMN Reporting Station
Scattered Clouds Scattered Clouds  
Wind Chill: 32°   Ceiling: Unl
Heat Index: 41°   Visibility: 10mi
Dew Point: 27°   Wind: 17mph
Humidity: 57%   Direction: 360°N
Pressure: 29.88"   Gusts: 29mph
Location:  45.64°N, 113.65°W
Report Text: KSMN 220115Z AUTO 36015G25KT 10SM SCT120 05/M03 A2988 RMK AO1
Loading
Personal Weather Stations






























Interactive Weather Map New forecast layout! Learn more

10-Day Weather Forecast

Advertisements
Track Severe Weather on mobile